createdAt,value
2022-08-17T00:00:43.193Z,3.40
2022-08-17T00:05:57.508Z,3.40
2022-08-17T00:10:59.977Z,3.60
2022-08-17T00:16:06.145Z,4.05
2022-08-17T00:21:10.355Z,3.37
2022-08-17T00:26:13.461Z,3.80
2022-08-17T00:31:15.695Z,4.12
2022-08-17T00:36:17.021Z,3.75
2022-08-17T00:41:21.607Z,3.92
2022-08-17T00:46:26.363Z,4.32
2022-08-17T00:51:54.473Z,3.80
2022-08-17T00:57:06.210Z,4.18
2022-08-17T01:02:11.686Z,4.32
2022-08-17T01:07:13.516Z,4.37
2022-08-17T01:12:14.698Z,4.72
2022-08-17T01:17:15.841Z,4.60
2022-08-17T01:22:21.986Z,4.80
2022-08-17T01:27:23.642Z,4.90
2022-08-17T01:32:27.649Z,4.93
2022-08-17T01:37:35.679Z,5.05
2022-08-17T01:43:00.076Z,4.40
2022-08-17T01:48:01.025Z,4.45
2022-08-17T01:53:06.356Z,4.30
2022-08-17T01:58:08.993Z,4.55
2022-08-17T02:03:10.166Z,4.30
2022-08-17T02:08:19.772Z,4.20
2022-08-17T02:13:21.284Z,4.80
2022-08-17T02:18:22.333Z,4.82
2022-08-17T02:23:26.615Z,4.47
2022-08-17T02:28:28.584Z,4.18
2022-08-17T02:33:41.538Z,4.00
2022-08-17T02:38:44.319Z,3.78
2022-08-17T02:43:45.143Z,3.40
2022-08-17T02:48:46.289Z,4.03
2022-08-17T02:53:47.153Z,3.90
2022-08-17T02:58:48.449Z,3.22
2022-08-17T03:03:49.423Z,3.78
2022-08-17T03:08:50.414Z,3.60
2022-08-17T03:13:51.273Z,3.70
2022-08-17T03:18:53.940Z,3.30
2022-08-17T03:23:54.847Z,3.62
2022-08-17T03:28:55.741Z,3.60
2022-08-17T03:33:56.788Z,3.35
2022-08-17T03:38:57.664Z,3.50
2022-08-17T03:43:58.547Z,4.30
2022-08-17T03:49:17.769Z,4.35
2022-08-17T03:54:37.292Z,4.40
2022-08-17T03:59:42.457Z,4.53
2022-08-17T04:04:51.414Z,3.70
2022-08-17T04:09:52.726Z,3.97
2022-08-17T04:14:54.952Z,3.80
2022-08-17T04:19:56.511Z,3.42
2022-08-17T04:24:57.961Z,3.70
2022-08-17T04:30:00.178Z,3.72
2022-08-17T04:35:01.516Z,3.60
2022-08-17T04:40:21.853Z,3.90
2022-08-17T04:45:22.834Z,3.55
2022-08-17T04:50:23.788Z,3.87
2022-08-17T04:55:24.767Z,3.55
2022-08-17T05:00:26.026Z,3.80
2022-08-17T05:05:32.976Z,3.92
2022-08-17T05:10:36.652Z,4.30
2022-08-17T05:15:44.914Z,4.10
2022-08-17T05:20:46.320Z,4.10
2022-08-17T05:25:50.429Z,4.07
2022-08-17T05:30:51.423Z,4.72
2022-08-17T05:35:55.152Z,4.05
2022-08-17T05:40:57.196Z,4.22
2022-08-17T05:46:24.341Z,4.07
2022-08-17T05:55:03.316Z,4.60
2022-08-17T06:00:49.758Z,4.75
2022-08-17T06:06:49.917Z,4.50
2022-08-17T06:15:03.057Z,5.60
2022-08-17T06:20:09.794Z,5.12
2022-08-17T06:25:22.796Z,4.47
2022-08-17T06:30:27.695Z,4.60
2022-08-17T06:35:46.188Z,5.40
2022-08-17T06:43:33.529Z,8.10
2022-08-17T06:49:00.102Z,4.72
2022-08-17T06:54:10.357Z,4.65
2022-08-17T06:59:17.626Z,5.15
2022-08-17T07:04:25.632Z,4.07
2022-08-17T07:09:35.095Z,4.28
2022-08-17T07:16:03.890Z,5.45
2022-08-17T07:21:17.477Z,5.30
2022-08-17T07:26:22.484Z,4.90
2022-08-17T07:31:25.296Z,4.32
2022-08-17T07:41:53.454Z,4.12
2022-08-17T07:47:18.392Z,3.67
2022-08-17T07:52:48.292Z,3.87
2022-08-17T07:57:57.995Z,3.95
2022-08-17T08:03:28.842Z,4.47
2022-08-17T08:08:36.776Z,4.60
2022-08-17T08:13:42.928Z,4.07
2022-08-17T08:18:54.473Z,4.47
2022-08-17T08:25:01.726Z,5.55
2022-08-17T08:30:09.837Z,4.78
2022-08-17T08:35:53.634Z,4.80
2022-08-17T08:41:29.803Z,4.95
2022-08-17T08:46:51.373Z,5.82
2022-08-17T08:51:58.273Z,5.93
2022-08-17T08:57:37.575Z,5.32
2022-08-17T09:09:46.271Z,4.95
2022-08-17T09:15:03.854Z,6.10
2022-08-17T09:20:33.050Z,5.60
2022-08-17T09:25:50.525Z,5.25
2022-08-17T09:31:02.625Z,5.53
2022-08-17T09:36:27.398Z,5.50
2022-08-17T09:42:53.646Z,5.22
2022-08-17T09:48:18.438Z,5.75
2022-08-17T09:53:19.422Z,5.47
2022-08-17T09:59:39.676Z,5.25
2022-08-17T10:06:34.381Z,6.53
2022-08-17T10:12:34.938Z,5.47
2022-08-17T10:18:07.101Z,5.40
2022-08-17T10:23:34.522Z,5.30
2022-08-17T10:29:13.735Z,5.78
2022-08-17T10:35:15.861Z,5.60
2022-08-17T10:40:47.302Z,5.82
2022-08-17T10:46:10.510Z,5.45
2022-08-17T10:51:38.841Z,5.65
2022-08-17T10:56:47.388Z,5.00
2022-08-17T11:02:16.895Z,5.50
2022-08-17T11:07:37.859Z,5.28
2022-08-17T11:13:06.506Z,4.75
2022-08-17T11:18:28.326Z,5.10
2022-08-17T11:23:52.895Z,4.70
2022-08-17T11:28:59.553Z,5.97
2022-08-17T11:34:22.421Z,5.87
2022-08-17T11:40:04.762Z,5.28
2022-08-17T11:47:34.992Z,5.95
2022-08-17T11:52:40.422Z,4.60
2022-08-17T11:57:59.061Z,5.47
2022-08-17T12:04:03.021Z,4.70
2022-08-17T12:09:43.359Z,4.80
2022-08-17T12:15:12.465Z,4.65
2022-08-17T12:20:39.201Z,5.20
2022-08-17T12:26:12.117Z,4.60
2022-08-17T12:31:20.109Z,4.78
2022-08-17T12:36:27.515Z,4.40
2022-08-17T12:41:38.245Z,4.97
2022-08-17T12:48:31.337Z,5.22
2022-08-17T12:58:47.007Z,4.90
2022-08-17T13:03:51.603Z,4.20
2022-08-17T13:08:52.592Z,4.37
2022-08-17T13:13:55.838Z,4.50
2022-08-17T13:19:39.716Z,4.30
2022-08-17T13:24:52.676Z,3.78
2022-08-17T13:30:00.148Z,4.13
2022-08-17T13:35:29.589Z,4.07
2022-08-17T13:45:50.451Z,3.75
2022-08-17T13:51:12.971Z,3.83
2022-08-17T13:56:37.815Z,3.60
2022-08-17T14:01:47.504Z,3.83
2022-08-17T14:06:58.865Z,3.60
2022-08-17T14:12:01.540Z,4.05
2022-08-17T14:17:03.372Z,3.35
2022-08-17T14:22:08.279Z,3.42
2022-08-17T14:27:09.475Z,3.47
2022-08-17T14:33:11.190Z,4.03
2022-08-17T14:38:12.006Z,4.27
2022-08-17T14:43:15.116Z,3.72
2022-08-17T14:48:16.186Z,3.67
2022-08-17T14:53:17.176Z,3.85
2022-08-17T14:58:19.226Z,3.17
2022-08-17T15:03:20.027Z,3.70
2022-08-17T15:08:21.124Z,3.80
2022-08-17T15:13:24.781Z,3.12
2022-08-17T15:18:25.796Z,3.67
2022-08-17T15:23:26.827Z,3.62
2022-08-17T15:28:27.808Z,3.80
2022-08-17T15:33:29.635Z,3.37
2022-08-17T15:38:33.107Z,3.37
2022-08-17T15:43:35.775Z,3.37
2022-08-17T15:48:42.510Z,3.12
2022-08-17T15:53:48.480Z,3.33
2022-08-17T15:58:49.402Z,3.60
2022-08-17T16:04:04.732Z,3.30
2022-08-17T16:09:25.911Z,3.20
2022-08-17T16:14:32.464Z,3.72
2022-08-17T16:19:38.009Z,3.50
2022-08-17T16:24:47.357Z,3.30
2022-08-17T16:30:00.166Z,3.37
2022-08-17T16:35:06.862Z,3.37
2022-08-17T16:40:08.694Z,3.15
2022-08-17T16:45:16.214Z,3.45
2022-08-17T16:50:19.747Z,3.10
2022-08-17T16:55:23.217Z,3.85
2022-08-17T17:00:24.206Z,3.10
2022-08-17T17:06:39.869Z,3.03
2022-08-17T17:11:47.509Z,2.97
2022-08-17T17:17:12.783Z,3.20
2022-08-17T17:22:18.922Z,3.45
2022-08-17T17:30:45.884Z,2.92
2022-08-17T17:35:56.125Z,4.60
2022-08-17T17:41:05.345Z,4.10
2022-08-17T17:46:29.066Z,4.80
2022-08-17T17:52:07.798Z,4.65
2022-08-17T17:58:08.425Z,4.20
2022-08-17T18:03:29.182Z,4.12
2022-08-17T18:11:16.139Z,4.70
2022-08-17T18:16:28.806Z,4.25
2022-08-17T18:21:38.886Z,4.00
2022-08-17T18:26:44.947Z,4.03
2022-08-17T18:31:46.146Z,4.22
2022-08-17T18:36:47.059Z,4.05
2022-08-17T18:41:50.297Z,3.83
2022-08-17T18:47:14.822Z,4.18
2022-08-17T18:52:28.758Z,4.32
2022-08-17T18:57:39.037Z,4.30
2022-08-17T19:02:56.594Z,4.62
2022-08-17T19:08:34.147Z,4.28
2022-08-17T19:14:36.190Z,6.68
2022-08-17T19:19:52.115Z,7.57
2022-08-17T19:25:03.478Z,7.12
2022-08-17T19:30:11.755Z,7.80
2022-08-17T19:35:17.486Z,7.75
2022-08-17T19:40:52.800Z,8.63
2022-08-17T19:46:39.314Z,8.75
2022-08-17T19:51:57.434Z,8.45
2022-08-17T19:57:26.752Z,9.48
2022-08-17T20:02:55.497Z,8.85
2022-08-17T20:08:07.938Z,9.82
2022-08-17T20:13:14.623Z,10.00
2022-08-17T20:18:44.017Z,10.07
2022-08-17T20:24:13.544Z,10.68
2022-08-17T20:29:58.029Z,11.05
2022-08-17T20:35:38.170Z,11.00
2022-08-17T20:41:09.541Z,10.88
2022-08-17T20:46:32.232Z,11.02
2022-08-17T20:57:03.183Z,11.70
2022-08-17T21:02:20.029Z,12.20
2022-08-17T21:09:27.366Z,11.63
2022-08-17T21:14:42.701Z,11.07
2022-08-17T21:20:48.047Z,10.57
2022-08-17T21:26:50.286Z,11.43
2022-08-17T21:34:16.257Z,11.55
2022-08-17T21:39:24.023Z,10.63
2022-08-17T21:44:36.215Z,10.07
2022-08-17T21:49:37.775Z,10.38
2022-08-17T21:54:46.406Z,10.70
2022-08-17T22:00:00.097Z,10.52
2022-08-17T22:05:08.167Z,10.30
2022-08-17T22:10:39.815Z,10.77
2022-08-17T22:15:43.038Z,10.02
2022-08-17T22:20:49.674Z,11.45
2022-08-17T22:26:04.019Z,11.48
2022-08-17T22:31:08.465Z,11.45
2022-08-17T22:37:11.010Z,11.43
2022-08-17T22:42:14.223Z,12.27
2022-08-17T22:47:30.884Z,11.50
2022-08-17T22:59:19.662Z,12.80
2022-08-17T23:04:35.853Z,12.68
2022-08-17T23:09:37.433Z,13.60
2022-08-17T23:14:44.948Z,14.43
2022-08-17T23:19:45.954Z,12.88
2022-08-17T23:24:49.089Z,12.25
2022-08-17T23:29:49.961Z,14.30
2022-08-17T23:34:51.321Z,15.05
2022-08-17T23:39:52.196Z,14.95
2022-08-17T23:44:53.177Z,14.55
2022-08-17T23:49:54.286Z,15.65
2022-08-17T23:54:56.711Z,14.63
2022-08-17T23:59:57.548Z,16.80
